sensor_id;sensor_type;location;lat;lon;timestamp;P1;durP1;ratioP1;P2;durP2;ratioP2
10701;SDS011;5402;50.004;8.246;2023-04-24T00:00:50;1.60;;;1.30;;
10701;SDS011;5402;50.004;8.246;2023-04-24T00:03:17;2.83;;;1.27;;
10701;SDS011;5402;50.004;8.246;2023-04-24T00:05:46;2.17;;;1.07;;
10701;SDS011;5402;50.004;8.246;2023-04-24T00:08:12;1.23;;;1.10;;
10701;SDS011;5402;50.004;8.246;2023-04-24T00:10:39;1.57;;;1.47;;
10701;SDS011;5402;50.004;8.246;2023-04-24T00:13:08;1.57;;;1.30;;
10701;SDS011;5402;50.004;8.246;2023-04-24T00:15:41;2.17;;;1.22;;
10701;SDS011;5402;50.004;8.246;2023-04-24T00:18:07;1.63;;;1.30;;
10701;SDS011;5402;50.004;8.246;2023-04-24T00:20:34;1.37;;;1.10;;
10701;SDS011;5402;50.004;8.246;2023-04-24T00:23:01;3.73;;;1.30;;
10701;SDS011;5402;50.004;8.246;2023-04-24T00:25:28;1.90;;;1.27;;
10701;SDS011;5402;50.004;8.246;2023-04-24T00:27:55;1.70;;;1.40;;
10701;SDS011;5402;50.004;8.246;2023-04-24T00:30:23;1.67;;;1.30;;
10701;SDS011;5402;50.004;8.246;2023-04-24T00:32:49;2.17;;;1.00;;
10701;SDS011;5402;50.004;8.246;2023-04-24T00:35:16;1.47;;;1.20;;
10701;SDS011;5402;50.004;8.246;2023-04-24T00:37:44;2.13;;;1.30;;
10701;SDS011;5402;50.004;8.246;2023-04-24T00:40:11;1.60;;;1.20;;
10701;SDS011;5402;50.004;8.246;2023-04-24T00:42:38;1.30;;;1.20;;
10701;SDS011;5402;50.004;8.246;2023-04-24T00:45:06;1.60;;;1.13;;
10701;SDS011;5402;50.004;8.246;2023-04-24T00:47:35;1.40;;;1.10;;
10701;SDS011;5402;50.004;8.246;2023-04-24T00:50:04;3.60;;;1.20;;
10701;SDS011;5402;50.004;8.246;2023-04-24T00:52:31;1.30;;;1.20;;
10701;SDS011;5402;50.004;8.246;2023-04-24T00:54:58;1.60;;;1.17;;
10701;SDS011;5402;50.004;8.246;2023-04-24T00:57:25;1.23;;;1.13;;
10701;SDS011;5402;50.004;8.246;2023-04-24T00:59:52;1.27;;;1.17;;
10701;SDS011;5402;50.004;8.246;2023-04-24T01:02:20;1.30;;;1.00;;
10701;SDS011;5402;50.004;8.246;2023-04-24T01:04:49;1.10;;;1.00;;
10701;SDS011;5402;50.004;8.246;2023-04-24T01:07:17;1.90;;;1.30;;
10701;SDS011;5402;50.004;8.246;2023-04-24T01:09:45;1.87;;;1.27;;
10701;SDS011;5402;50.004;8.246;2023-04-24T01:12:15;1.17;;;1.10;;
10701;SDS011;5402;50.004;8.246;2023-04-24T01:14:42;2.83;;;1.17;;
10701;SDS011;5402;50.004;8.246;2023-04-24T01:17:09;1.43;;;1.33;;
10701;SDS011;5402;50.004;8.246;2023-04-24T01:19:36;2.20;;;1.23;;
10701;SDS011;5402;50.004;8.246;2023-04-24T01:22:08;1.60;;;1.10;;
10701;SDS011;5402;50.004;8.246;2023-04-24T01:24:36;1.37;;;1.10;;
10701;SDS011;5402;50.004;8.246;2023-04-24T01:27:03;3.47;;;1.50;;
10701;SDS011;5402;50.004;8.246;2023-04-24T01:29:30;2.20;;;1.03;;
10701;SDS011;5402;50.004;8.246;2023-04-24T01:31:57;3.00;;;1.00;;
10701;SDS011;5402;50.004;8.246;2023-04-24T01:34:24;2.20;;;1.20;;
10701;SDS011;5402;50.004;8.246;2023-04-24T01:36:51;2.10;;;1.00;;
10701;SDS011;5402;50.004;8.246;2023-04-24T01:39:19;1.20;;;1.10;;
10701;SDS011;5402;50.004;8.246;2023-04-24T01:41:48;3.63;;;2.80;;
10701;SDS011;5402;50.004;8.246;2023-04-24T01:44:15;1.97;;;1.17;;
10701;SDS011;5402;50.004;8.246;2023-04-24T01:46:42;2.50;;;1.00;;
10701;SDS011;5402;50.004;8.246;2023-04-24T01:49:09;1.73;;;1.30;;
10701;SDS011;5402;50.004;8.246;2023-04-24T01:51:36;1.23;;;1.13;;
10701;SDS011;5402;50.004;8.246;2023-04-24T01:54:02;1.83;;;1.13;;
10701;SDS011;5402;50.004;8.246;2023-04-24T01:56:31;1.63;;;1.20;;
10701;SDS011;5402;50.004;8.246;2023-04-24T01:58:59;2.47;;;1.10;;
10701;SDS011;5402;50.004;8.246;2023-04-24T02:01:31;1.20;;;1.10;;
10701;SDS011;5402;50.004;8.246;2023-04-24T02:04:00;1.50;;;1.20;;
10701;SDS011;5402;50.004;8.246;2023-04-24T02:06:27;2.27;;;1.33;;
10701;SDS011;5402;50.004;8.246;2023-04-24T02:08:53;1.90;;;1.37;;
10701;SDS011;5402;50.004;8.246;2023-04-24T02:11:20;2.57;;;1.33;;
10701;SDS011;5402;50.004;8.246;2023-04-24T02:13:48;1.53;;;1.10;;
10701;SDS011;5402;50.004;8.246;2023-04-24T02:16:15;2.77;;;1.10;;
10701;SDS011;5402;50.004;8.246;2023-04-24T02:18:42;1.30;;;1.20;;
10701;SDS011;5402;50.004;8.246;2023-04-24T02:21:09;1.10;;;1.00;;
10701;SDS011;5402;50.004;8.246;2023-04-24T02:23:35;1.20;;;1.10;;
10701;SDS011;5402;50.004;8.246;2023-04-24T02:26:02;1.10;;;1.00;;
10701;SDS011;5402;50.004;8.246;2023-04-24T02:28:29;2.40;;;1.20;;
10701;SDS011;5402;50.004;8.246;2023-04-24T02:30:57;1.30;;;1.20;;
10701;SDS011;5402;50.004;8.246;2023-04-24T02:33:24;2.37;;;1.40;;
10701;SDS011;5402;50.004;8.246;2023-04-24T02:35:50;1.20;;;1.10;;
10701;SDS011;5402;50.004;8.246;2023-04-24T02:38:17;1.83;;;1.10;;
10701;SDS011;5402;50.004;8.246;2023-04-24T02:40:44;3.53;;;1.23;;
10701;SDS011;5402;50.004;8.246;2023-04-24T02:43:10;2.30;;;1.30;;
10701;SDS011;5402;50.004;8.246;2023-04-24T02:45:37;2.67;;;1.30;;
10701;SDS011;5402;50.004;8.246;2023-04-24T02:48:05;1.50;;;1.10;;
10701;SDS011;5402;50.004;8.246;2023-04-24T02:50:32;1.87;;;1.47;;
10701;SDS011;5402;50.004;8.246;2023-04-24T02:52:59;1.40;;;1.30;;
10701;SDS011;5402;50.004;8.246;2023-04-24T02:55:25;2.40;;;1.30;;
10701;SDS011;5402;50.004;8.246;2023-04-24T02:57:53;2.30;;;1.20;;
10701;SDS011;5402;50.004;8.246;2023-04-24T03:00:19;2.13;;;1.30;;
10701;SDS011;5402;50.004;8.246;2023-04-24T03:02:46;2.30;;;1.17;;
10701;SDS011;5402;50.004;8.246;2023-04-24T03:05:15;1.13;;;1.10;;
10701;SDS011;5402;50.004;8.246;2023-04-24T03:07:42;1.23;;;1.00;;
10701;SDS011;5402;50.004;8.246;2023-04-24T03:10:09;1.30;;;1.20;;
10701;SDS011;5402;50.004;8.246;2023-04-24T03:12:36;1.30;;;1.20;;
10701;SDS011;5402;50.004;8.246;2023-04-24T03:15:02;1.30;;;1.20;;
10701;SDS011;5402;50.004;8.246;2023-04-24T03:17:30;1.50;;;1.40;;
10701;SDS011;5402;50.004;8.246;2023-04-24T03:19:56;1.30;;;1.20;;
10701;SDS011;5402;50.004;8.246;2023-04-24T03:22:24;1.37;;;1.17;;
10701;SDS011;5402;50.004;8.246;2023-04-24T03:24:51;1.60;;;1.30;;
10701;SDS011;5402;50.004;8.246;2023-04-24T03:27:18;1.50;;;1.40;;
10701;SDS011;5402;50.004;8.246;2023-04-24T03:29:44;1.40;;;1.30;;
10701;SDS011;5402;50.004;8.246;2023-04-24T03:32:11;0.97;;;0.97;;
10701;SDS011;5402;50.004;8.246;2023-04-24T03:34:38;1.70;;;1.13;;
10701;SDS011;5402;50.004;8.246;2023-04-24T03:37:05;1.37;;;1.10;;
10701;SDS011;5402;50.004;8.246;2023-04-24T03:39:33;1.67;;;1.20;;
10701;SDS011;5402;50.004;8.246;2023-04-24T03:41:59;2.90;;;1.70;;
10701;SDS011;5402;50.004;8.246;2023-04-24T03:44:26;1.20;;;1.10;;
10701;SDS011;5402;50.004;8.246;2023-04-24T03:46:53;1.13;;;1.10;;
10701;SDS011;5402;50.004;8.246;2023-04-24T03:49:19;2.93;;;1.30;;
10701;SDS011;5402;50.004;8.246;2023-04-24T03:51:46;2.70;;;1.00;;
10701;SDS011;5402;50.004;8.246;2023-04-24T03:54:13;2.07;;;1.10;;
10701;SDS011;5402;50.004;8.246;2023-04-24T03:56:41;1.50;;;1.40;;
10701;SDS011;5402;50.004;8.246;2023-04-24T03:59:08;1.20;;;1.13;;
10701;SDS011;5402;50.004;8.246;2023-04-24T04:01:35;1.37;;;1.17;;
10701;SDS011;5402;50.004;8.246;2023-04-24T04:04:02;1.50;;;1.40;;
10701;SDS011;5402;50.004;8.246;2023-04-24T04:06:29;1.83;;;1.70;;
10701;SDS011;5402;50.004;8.246;2023-04-24T04:08:56;1.80;;;1.50;;
10701;SDS011;5402;50.004;8.246;2023-04-24T04:11:23;1.70;;;1.50;;
10701;SDS011;5402;50.004;8.246;2023-04-24T04:13:52;2.20;;;1.70;;
10701;SDS011;5402;50.004;8.246;2023-04-24T04:16:18;2.43;;;1.63;;
10701;SDS011;5402;50.004;8.246;2023-04-24T04:18:45;1.73;;;1.50;;
10701;SDS011;5402;50.004;8.246;2023-04-24T04:21:12;1.37;;;1.27;;
10701;SDS011;5402;50.004;8.246;2023-04-24T04:23:38;1.63;;;1.53;;
10701;SDS011;5402;50.004;8.246;2023-04-24T04:26:05;4.13;;;1.63;;
10701;SDS011;5402;50.004;8.246;2023-04-24T04:28:33;1.63;;;1.40;;
10701;SDS011;5402;50.004;8.246;2023-04-24T04:31:01;1.60;;;1.50;;
10701;SDS011;5402;50.004;8.246;2023-04-24T04:33:27;1.70;;;1.60;;
10701;SDS011;5402;50.004;8.246;2023-04-24T04:35:54;1.83;;;1.67;;
10701;SDS011;5402;50.004;8.246;2023-04-24T04:38:22;3.13;;;1.80;;
10701;SDS011;5402;50.004;8.246;2023-04-24T04:40:49;2.07;;;1.83;;
10701;SDS011;5402;50.004;8.246;2023-04-24T04:43:16;2.40;;;1.60;;
10701;SDS011;5402;50.004;8.246;2023-04-24T04:45:42;1.53;;;1.43;;
10701;SDS011;5402;50.004;8.246;2023-04-24T04:48:11;1.90;;;1.80;;
10701;SDS011;5402;50.004;8.246;2023-04-24T04:50:38;1.93;;;1.77;;
10701;SDS011;5402;50.004;8.246;2023-04-24T04:53:05;2.07;;;1.90;;
10701;SDS011;5402;50.004;8.246;2023-04-24T04:55:32;2.20;;;1.80;;
10701;SDS011;5402;50.004;8.246;2023-04-24T04:57:59;2.53;;;1.90;;
10701;SDS011;5402;50.004;8.246;2023-04-24T05:00:26;2.20;;;2.00;;
10701;SDS011;5402;50.004;8.246;2023-04-24T05:02:54;2.10;;;1.90;;
10701;SDS011;5402;50.004;8.246;2023-04-24T05:05:22;2.37;;;1.90;;
10701;SDS011;5402;50.004;8.246;2023-04-24T05:07:48;2.63;;;2.10;;
10701;SDS011;5402;50.004;8.246;2023-04-24T05:10:15;3.27;;;2.40;;
10701;SDS011;5402;50.004;8.246;2023-04-24T05:12:42;2.23;;;2.03;;
10701;SDS011;5402;50.004;8.246;2023-04-24T05:15:09;3.00;;;2.43;;
10701;SDS011;5402;50.004;8.246;2023-04-24T05:17:36;2.30;;;2.10;;
10701;SDS011;5402;50.004;8.246;2023-04-24T05:20:05;3.53;;;2.13;;
10701;SDS011;5402;50.004;8.246;2023-04-24T05:22:34;2.43;;;2.23;;
10701;SDS011;5402;50.004;8.246;2023-04-24T05:25:01;2.43;;;2.20;;
10701;SDS011;5402;50.004;8.246;2023-04-24T05:27:30;2.97;;;2.57;;
10701;SDS011;5402;50.004;8.246;2023-04-24T05:29:57;2.83;;;2.30;;
10701;SDS011;5402;50.004;8.246;2023-04-24T05:32:24;2.57;;;2.30;;
10701;SDS011;5402;50.004;8.246;2023-04-24T05:34:52;4.80;;;2.50;;
10701;SDS011;5402;50.004;8.246;2023-04-24T05:37:18;2.50;;;2.30;;
10701;SDS011;5402;50.004;8.246;2023-04-24T05:39:46;4.20;;;2.50;;
10701;SDS011;5402;50.004;8.246;2023-04-24T05:42:13;2.87;;;2.07;;
10701;SDS011;5402;50.004;8.246;2023-04-24T05:44:40;3.20;;;2.13;;
10701;SDS011;5402;50.004;8.246;2023-04-24T05:47:06;2.50;;;2.30;;
10701;SDS011;5402;50.004;8.246;2023-04-24T05:49:33;2.43;;;2.20;;
10701;SDS011;5402;50.004;8.246;2023-04-24T05:52:00;3.73;;;2.37;;
10701;SDS011;5402;50.004;8.246;2023-04-24T05:54:29;3.23;;;2.67;;
10701;SDS011;5402;50.004;8.246;2023-04-24T05:56:57;3.30;;;2.50;;
10701;SDS011;5402;50.004;8.246;2023-04-24T05:59:23;6.13;;;2.53;;
10701;SDS011;5402;50.004;8.246;2023-04-24T06:01:50;3.30;;;2.60;;
10701;SDS011;5402;50.004;8.246;2023-04-24T06:04:17;3.70;;;2.70;;
10701;SDS011;5402;50.004;8.246;2023-04-24T06:06:44;3.20;;;2.57;;
10701;SDS011;5402;50.004;8.246;2023-04-24T06:09:10;2.63;;;2.43;;
10701;SDS011;5402;50.004;8.246;2023-04-24T06:11:37;2.57;;;2.37;;
10701;SDS011;5402;50.004;8.246;2023-04-24T06:14:05;3.53;;;2.63;;
10701;SDS011;5402;50.004;8.246;2023-04-24T06:16:32;3.07;;;2.77;;
10701;SDS011;5402;50.004;8.246;2023-04-24T06:18:59;3.77;;;2.97;;
10701;SDS011;5402;50.004;8.246;2023-04-24T06:21:25;3.03;;;2.70;;
10701;SDS011;5402;50.004;8.246;2023-04-24T06:23:52;4.63;;;2.80;;
10701;SDS011;5402;50.004;8.246;2023-04-24T06:26:21;5.07;;;2.83;;
10701;SDS011;5402;50.004;8.246;2023-04-24T06:28:49;3.07;;;2.53;;
10701;SDS011;5402;50.004;8.246;2023-04-24T06:31:17;3.10;;;2.50;;
10701;SDS011;5402;50.004;8.246;2023-04-24T06:33:44;4.13;;;2.63;;
10701;SDS011;5402;50.004;8.246;2023-04-24T06:36:11;3.20;;;2.53;;
10701;SDS011;5402;50.004;8.246;2023-04-24T06:38:38;3.03;;;2.73;;
10701;SDS011;5402;50.004;8.246;2023-04-24T06:41:05;3.00;;;2.63;;
10701;SDS011;5402;50.004;8.246;2023-04-24T06:43:32;2.87;;;2.57;;
10701;SDS011;5402;50.004;8.246;2023-04-24T06:45:59;3.07;;;2.77;;
10701;SDS011;5402;50.004;8.246;2023-04-24T06:48:29;3.03;;;2.70;;
10701;SDS011;5402;50.004;8.246;2023-04-24T06:50:56;3.33;;;2.70;;
10701;SDS011;5402;50.004;8.246;2023-04-24T06:53:23;3.77;;;3.00;;
10701;SDS011;5402;50.004;8.246;2023-04-24T06:55:50;2.63;;;2.17;;
10701;SDS011;5402;50.004;8.246;2023-04-24T06:58:17;4.13;;;2.40;;
10701;SDS011;5402;50.004;8.246;2023-04-24T07:00:44;2.40;;;2.20;;
10701;SDS011;5402;50.004;8.246;2023-04-24T07:03:10;2.93;;;2.40;;
10701;SDS011;5402;50.004;8.246;2023-04-24T07:05:38;3.37;;;2.30;;
10701;SDS011;5402;50.004;8.246;2023-04-24T07:08:06;2.73;;;2.53;;
10701;SDS011;5402;50.004;8.246;2023-04-24T07:10:36;2.43;;;2.20;;
10701;SDS011;5402;50.004;8.246;2023-04-24T07:13:03;2.40;;;2.13;;
10701;SDS011;5402;50.004;8.246;2023-04-24T07:15:29;2.63;;;2.30;;
10701;SDS011;5402;50.004;8.246;2023-04-24T07:17:57;3.87;;;2.37;;
10701;SDS011;5402;50.004;8.246;2023-04-24T07:20:24;4.03;;;2.30;;
10701;SDS011;5402;50.004;8.246;2023-04-24T07:22:52;2.73;;;2.43;;
10701;SDS011;5402;50.004;8.246;2023-04-24T07:25:19;3.03;;;2.20;;
10701;SDS011;5402;50.004;8.246;2023-04-24T07:27:46;3.67;;;2.03;;
10701;SDS011;5402;50.004;8.246;2023-04-24T07:30:14;2.40;;;2.20;;
10701;SDS011;5402;50.004;8.246;2023-04-24T07:32:40;2.67;;;2.23;;
10701;SDS011;5402;50.004;8.246;2023-04-24T07:35:08;3.63;;;2.40;;
10701;SDS011;5402;50.004;8.246;2023-04-24T07:37:36;3.10;;;2.50;;
10701;SDS011;5402;50.004;8.246;2023-04-24T07:40:06;3.37;;;2.47;;
10701;SDS011;5402;50.004;8.246;2023-04-24T07:42:33;2.27;;;2.07;;
10701;SDS011;5402;50.004;8.246;2023-04-24T07:45:01;2.97;;;2.10;;
10701;SDS011;5402;50.004;8.246;2023-04-24T07:47:28;2.93;;;2.33;;
10701;SDS011;5402;50.004;8.246;2023-04-24T07:49:55;3.73;;;2.37;;
10701;SDS011;5402;50.004;8.246;2023-04-24T07:52:21;3.00;;;2.40;;
10701;SDS011;5402;50.004;8.246;2023-04-24T07:54:49;3.23;;;2.30;;
10701;SDS011;5402;50.004;8.246;2023-04-24T07:57:19;2.47;;;2.10;;
10701;SDS011;5402;50.004;8.246;2023-04-24T07:59:47;2.60;;;2.00;;
10701;SDS011;5402;50.004;8.246;2023-04-24T08:02:14;3.87;;;2.67;;
10701;SDS011;5402;50.004;8.246;2023-04-24T08:04:40;2.77;;;2.30;;
10701;SDS011;5402;50.004;8.246;2023-04-24T08:07:07;4.03;;;2.10;;
10701;SDS011;5402;50.004;8.246;2023-04-24T08:09:34;2.97;;;2.53;;
10701;SDS011;5402;50.004;8.246;2023-04-24T08:12:01;2.37;;;2.17;;
10701;SDS011;5402;50.004;8.246;2023-04-24T08:14:29;2.67;;;2.20;;
10701;SDS011;5402;50.004;8.246;2023-04-24T08:16:55;2.70;;;2.40;;
10701;SDS011;5402;50.004;8.246;2023-04-24T08:19:25;3.67;;;2.30;;
10701;SDS011;5402;50.004;8.246;2023-04-24T08:21:52;3.47;;;2.40;;
10701;SDS011;5402;50.004;8.246;2023-04-24T08:24:18;2.40;;;2.13;;
10701;SDS011;5402;50.004;8.246;2023-04-24T08:26:45;4.20;;;2.43;;
10701;SDS011;5402;50.004;8.246;2023-04-24T08:29:15;2.33;;;2.13;;
10701;SDS011;5402;50.004;8.246;2023-04-24T08:31:43;2.50;;;2.30;;
10701;SDS011;5402;50.004;8.246;2023-04-24T08:34:09;3.27;;;2.60;;
10701;SDS011;5402;50.004;8.246;2023-04-24T08:36:36;2.10;;;1.90;;
10701;SDS011;5402;50.004;8.246;2023-04-24T08:39:05;3.10;;;2.07;;
10701;SDS011;5402;50.004;8.246;2023-04-24T08:41:32;2.47;;;2.27;;
10701;SDS011;5402;50.004;8.246;2023-04-24T08:44:01;2.13;;;1.93;;
10701;SDS011;5402;50.004;8.246;2023-04-24T08:46:28;2.40;;;1.97;;
10701;SDS011;5402;50.004;8.246;2023-04-24T08:48:57;3.43;;;2.50;;
10701;SDS011;5402;50.004;8.246;2023-04-24T08:51:25;2.33;;;2.13;;
10701;SDS011;5402;50.004;8.246;2023-04-24T08:53:53;2.93;;;2.03;;
10701;SDS011;5402;50.004;8.246;2023-04-24T08:56:21;3.23;;;2.13;;
10701;SDS011;5402;50.004;8.246;2023-04-24T08:58:49;2.67;;;2.07;;
10701;SDS011;5402;50.004;8.246;2023-04-24T09:01:17;3.10;;;2.30;;
10701;SDS011;5402;50.004;8.246;2023-04-24T09:03:45;2.40;;;2.17;;
10701;SDS011;5402;50.004;8.246;2023-04-24T09:06:16;2.10;;;1.90;;
10701;SDS011;5402;50.004;8.246;2023-04-24T09:08:44;2.70;;;2.20;;
10701;SDS011;5402;50.004;8.246;2023-04-24T09:11:17;2.50;;;2.30;;
10701;SDS011;5402;50.004;8.246;2023-04-24T09:13:44;2.70;;;2.00;;
10701;SDS011;5402;50.004;8.246;2023-04-24T09:16:11;2.97;;;2.17;;
10701;SDS011;5402;50.004;8.246;2023-04-24T09:18:41;2.40;;;2.07;;
10701;SDS011;5402;50.004;8.246;2023-04-24T09:21:08;2.00;;;1.80;;
10701;SDS011;5402;50.004;8.246;2023-04-24T09:23:36;2.10;;;1.90;;
10701;SDS011;5402;50.004;8.246;2023-04-24T09:26:04;2.30;;;1.87;;
10701;SDS011;5402;50.004;8.246;2023-04-24T09:28:32;2.23;;;2.00;;
10701;SDS011;5402;50.004;8.246;2023-04-24T09:31:05;2.20;;;1.97;;
10701;SDS011;5402;50.004;8.246;2023-04-24T09:33:33;2.80;;;1.83;;
10701;SDS011;5402;50.004;8.246;2023-04-24T09:36:00;1.83;;;1.60;;
10701;SDS011;5402;50.004;8.246;2023-04-24T09:38:30;1.70;;;1.60;;
10701;SDS011;5402;50.004;8.246;2023-04-24T09:41:00;2.70;;;1.83;;
10701;SDS011;5402;50.004;8.246;2023-04-24T09:43:28;2.67;;;1.70;;
10701;SDS011;5402;50.004;8.246;2023-04-24T09:45:58;2.80;;;1.90;;
10701;SDS011;5402;50.004;8.246;2023-04-24T09:48:32;3.37;;;1.80;;
10701;SDS011;5402;50.004;8.246;2023-04-24T09:51:00;2.43;;;1.80;;
10701;SDS011;5402;50.004;8.246;2023-04-24T09:53:28;2.73;;;1.93;;
10701;SDS011;5402;50.004;8.246;2023-04-24T09:55:55;1.73;;;1.60;;
10701;SDS011;5402;50.004;8.246;2023-04-24T09:58:29;2.23;;;1.70;;
10701;SDS011;5402;50.004;8.246;2023-04-24T10:00:57;3.70;;;1.60;;
10701;SDS011;5402;50.004;8.246;2023-04-24T10:03:24;1.77;;;1.67;;
10701;SDS011;5402;50.004;8.246;2023-04-24T10:05:53;3.60;;;1.90;;
10701;SDS011;5402;50.004;8.246;2023-04-24T10:08:20;3.53;;;1.50;;
10701;SDS011;5402;50.004;8.246;2023-04-24T10:10:47;2.27;;;1.80;;
10701;SDS011;5402;50.004;8.246;2023-04-24T10:13:14;2.17;;;1.63;;
10701;SDS011;5402;50.004;8.246;2023-04-24T10:15:43;2.13;;;1.50;;
10701;SDS011;5402;50.004;8.246;2023-04-24T10:18:10;2.93;;;1.60;;
10701;SDS011;5402;50.004;8.246;2023-04-24T10:20:38;1.87;;;1.73;;
10701;SDS011;5402;50.004;8.246;2023-04-24T10:23:06;2.07;;;1.83;;
10701;SDS011;5402;50.004;8.246;2023-04-24T10:25:36;2.13;;;1.93;;
10701;SDS011;5402;50.004;8.246;2023-04-24T10:28:03;3.20;;;2.20;;
10701;SDS011;5402;50.004;8.246;2023-04-24T10:30:31;2.37;;;2.00;;
10701;SDS011;5402;50.004;8.246;2023-04-24T10:33:02;2.53;;;2.13;;
10701;SDS011;5402;50.004;8.246;2023-04-24T10:35:30;2.97;;;2.10;;
10701;SDS011;5402;50.004;8.246;2023-04-24T10:37:59;2.20;;;2.00;;
10701;SDS011;5402;50.004;8.246;2023-04-24T10:40:30;2.97;;;2.17;;
10701;SDS011;5402;50.004;8.246;2023-04-24T10:42:57;2.20;;;1.90;;
10701;SDS011;5402;50.004;8.246;2023-04-24T10:45:24;2.00;;;1.70;;
10701;SDS011;5402;50.004;8.246;2023-04-24T10:47:52;2.27;;;1.73;;
10701;SDS011;5402;50.004;8.246;2023-04-24T10:50:21;1.70;;;1.60;;
10701;SDS011;5402;50.004;8.246;2023-04-24T10:52:48;1.77;;;1.67;;
10701;SDS011;5402;50.004;8.246;2023-04-24T10:55:16;1.97;;;1.60;;
10701;SDS011;5402;50.004;8.246;2023-04-24T10:58:03;1.70;;;1.60;;
10701;SDS011;5402;50.004;8.246;2023-04-24T11:00:30;1.40;;;1.30;;
10701;SDS011;5402;50.004;8.246;2023-04-24T11:02:57;1.23;;;1.10;;
10701;SDS011;5402;50.004;8.246;2023-04-24T11:08:21;1.00;;;1.00;;
10701;SDS011;5402;50.004;8.246;2023-04-24T11:10:56;1.40;;;1.20;;
10701;SDS011;5402;50.004;8.246;2023-04-24T11:16:41;1.60;;;1.40;;
10701;SDS011;5402;50.004;8.246;2023-04-24T11:19:18;2.23;;;1.47;;
10701;SDS011;5402;50.004;8.246;2023-04-24T11:21:54;1.53;;;1.40;;
10701;SDS011;5402;50.004;8.246;2023-04-24T11:24:29;2.10;;;1.40;;
10701;SDS011;5402;50.004;8.246;2023-04-24T11:26:58;1.30;;;1.20;;
10701;SDS011;5402;50.004;8.246;2023-04-24T11:29:40;1.73;;;0.90;;
10701;SDS011;5402;50.004;8.246;2023-04-24T11:32:14;0.80;;;0.80;;
10701;SDS011;5402;50.004;8.246;2023-04-24T11:34:59;1.43;;;1.00;;
10701;SDS011;5402;50.004;8.246;2023-04-24T11:37:29;1.20;;;1.10;;
10701;SDS011;5402;50.004;8.246;2023-04-24T11:39:59;1.50;;;1.30;;
10701;SDS011;5402;50.004;8.246;2023-04-24T11:42:26;1.47;;;1.37;;
10701;SDS011;5402;50.004;8.246;2023-04-24T11:44:54;1.57;;;1.43;;
10701;SDS011;5402;50.004;8.246;2023-04-24T11:47:27;1.80;;;1.70;;
10701;SDS011;5402;50.004;8.246;2023-04-24T11:49:54;2.87;;;1.90;;
10701;SDS011;5402;50.004;8.246;2023-04-24T11:52:21;1.83;;;1.60;;
10701;SDS011;5402;50.004;8.246;2023-04-24T11:54:49;2.43;;;2.00;;
10701;SDS011;5402;50.004;8.246;2023-04-24T11:57:16;3.50;;;1.53;;
10701;SDS011;5402;50.004;8.246;2023-04-24T11:59:45;1.60;;;1.50;;
10701;SDS011;5402;50.004;8.246;2023-04-24T12:02:19;1.90;;;1.70;;
10701;SDS011;5402;50.004;8.246;2023-04-24T12:04:47;2.00;;;1.80;;
10701;SDS011;5402;50.004;8.246;2023-04-24T12:07:14;4.00;;;1.60;;
10701;SDS011;5402;50.004;8.246;2023-04-24T12:09:41;2.03;;;1.83;;
10701;SDS011;5402;50.004;8.246;2023-04-24T12:12:10;3.00;;;2.40;;
10701;SDS011;5402;50.004;8.246;2023-04-24T12:14:44;2.17;;;1.97;;
10701;SDS011;5402;50.004;8.246;2023-04-24T12:17:13;3.17;;;2.20;;
10701;SDS011;5402;50.004;8.246;2023-04-24T12:19:44;3.37;;;2.30;;
10701;SDS011;5402;50.004;8.246;2023-04-24T12:22:11;4.27;;;2.23;;
10701;SDS011;5402;50.004;8.246;2023-04-24T12:27:25;3.00;;;1.93;;
10701;SDS011;5402;50.004;8.246;2023-04-24T12:29:52;5.90;;;2.10;;
10701;SDS011;5402;50.004;8.246;2023-04-24T12:32:20;5.43;;;2.10;;
10701;SDS011;5402;50.004;8.246;2023-04-24T12:34:47;2.53;;;2.20;;
10701;SDS011;5402;50.004;8.246;2023-04-24T12:37:15;3.10;;;2.30;;
10701;SDS011;5402;50.004;8.246;2023-04-24T12:39:44;3.00;;;2.10;;
10701;SDS011;5402;50.004;8.246;2023-04-24T12:42:27;2.93;;;1.97;;
10701;SDS011;5402;50.004;8.246;2023-04-24T12:44:56;2.50;;;1.97;;
10701;SDS011;5402;50.004;8.246;2023-04-24T12:47:24;2.97;;;2.20;;
10701;SDS011;5402;50.004;8.246;2023-04-24T12:49:51;3.10;;;2.20;;
10701;SDS011;5402;50.004;8.246;2023-04-24T12:52:18;2.37;;;2.17;;
10701;SDS011;5402;50.004;8.246;2023-04-24T12:54:45;2.53;;;2.20;;
10701;SDS011;5402;50.004;8.246;2023-04-24T12:57:12;3.80;;;1.97;;
10701;SDS011;5402;50.004;8.246;2023-04-24T12:59:40;3.43;;;2.80;;
10701;SDS011;5402;50.004;8.246;2023-04-24T13:02:07;2.60;;;2.40;;
10701;SDS011;5402;50.004;8.246;2023-04-24T13:04:35;4.73;;;2.40;;
10701;SDS011;5402;50.004;8.246;2023-04-24T13:07:02;2.60;;;2.40;;
10701;SDS011;5402;50.004;8.246;2023-04-24T13:09:29;4.80;;;2.13;;
10701;SDS011;5402;50.004;8.246;2023-04-24T13:11:57;3.53;;;2.40;;
10701;SDS011;5402;50.004;8.246;2023-04-24T13:14:23;2.80;;;2.50;;
10701;SDS011;5402;50.004;8.246;2023-04-24T13:16:52;4.57;;;2.43;;
10701;SDS011;5402;50.004;8.246;2023-04-24T13:19:18;2.70;;;2.50;;
10701;SDS011;5402;50.004;8.246;2023-04-24T13:21:45;6.07;;;2.60;;
10701;SDS011;5402;50.004;8.246;2023-04-24T13:24:12;6.77;;;2.67;;
10701;SDS011;5402;50.004;8.246;2023-04-24T13:26:40;2.77;;;2.37;;
10701;SDS011;5402;50.004;8.246;2023-04-24T13:29:07;3.90;;;2.70;;
10701;SDS011;5402;50.004;8.246;2023-04-24T13:31:34;3.60;;;2.80;;
10701;SDS011;5402;50.004;8.246;2023-04-24T13:34:02;4.03;;;2.90;;
10701;SDS011;5402;50.004;8.246;2023-04-24T13:36:29;4.97;;;3.13;;
10701;SDS011;5402;50.004;8.246;2023-04-24T13:38:56;4.20;;;2.93;;
10701;SDS011;5402;50.004;8.246;2023-04-24T13:41:23;2.90;;;2.60;;
10701;SDS011;5402;50.004;8.246;2023-04-24T13:43:50;3.10;;;2.70;;
10701;SDS011;5402;50.004;8.246;2023-04-24T13:46:16;2.90;;;2.40;;
10701;SDS011;5402;50.004;8.246;2023-04-24T13:48:43;2.47;;;2.20;;
10701;SDS011;5402;50.004;8.246;2023-04-24T13:51:11;4.90;;;2.63;;
10701;SDS011;5402;50.004;8.246;2023-04-24T13:53:38;5.00;;;2.70;;
10701;SDS011;5402;50.004;8.246;2023-04-24T13:56:05;3.67;;;2.50;;
10701;SDS011;5402;50.004;8.246;2023-04-24T13:58:31;3.87;;;2.83;;
10701;SDS011;5402;50.004;8.246;2023-04-24T14:00:58;3.07;;;2.30;;
10701;SDS011;5402;50.004;8.246;2023-04-24T14:03:25;3.37;;;2.80;;
10701;SDS011;5402;50.004;8.246;2023-04-24T14:05:51;3.20;;;2.33;;
10701;SDS011;5402;50.004;8.246;2023-04-24T14:08:19;3.27;;;2.70;;
10701;SDS011;5402;50.004;8.246;2023-04-24T14:10:46;3.37;;;2.20;;
10701;SDS011;5402;50.004;8.246;2023-04-24T14:13:13;3.17;;;2.60;;
10701;SDS011;5402;50.004;8.246;2023-04-24T14:15:40;2.73;;;2.30;;
10701;SDS011;5402;50.004;8.246;2023-04-24T14:18:07;2.97;;;2.43;;
10701;SDS011;5402;50.004;8.246;2023-04-24T14:20:33;3.37;;;2.37;;
10701;SDS011;5402;50.004;8.246;2023-04-24T14:23:00;2.97;;;2.50;;
10701;SDS011;5402;50.004;8.246;2023-04-24T14:25:29;4.97;;;2.70;;
10701;SDS011;5402;50.004;8.246;2023-04-24T14:27:56;6.17;;;2.57;;
10701;SDS011;5402;50.004;8.246;2023-04-24T14:30:22;2.93;;;2.33;;
10701;SDS011;5402;50.004;8.246;2023-04-24T14:32:49;3.00;;;2.43;;
10701;SDS011;5402;50.004;8.246;2023-04-24T14:35:16;3.07;;;2.53;;
10701;SDS011;5402;50.004;8.246;2023-04-24T14:37:42;3.00;;;2.20;;
10701;SDS011;5402;50.004;8.246;2023-04-24T14:40:09;3.67;;;2.40;;
10701;SDS011;5402;50.004;8.246;2023-04-24T14:42:38;2.63;;;2.23;;
10701;SDS011;5402;50.004;8.246;2023-04-24T14:45:05;2.80;;;2.40;;
10701;SDS011;5402;50.004;8.246;2023-04-24T14:47:33;4.37;;;2.63;;
10701;SDS011;5402;50.004;8.246;2023-04-24T14:50:00;2.57;;;2.10;;
10701;SDS011;5402;50.004;8.246;2023-04-24T14:52:27;4.57;;;2.30;;
10701;SDS011;5402;50.004;8.246;2023-04-24T14:54:53;4.90;;;2.63;;
10701;SDS011;5402;50.004;8.246;2023-04-24T14:57:21;3.70;;;2.70;;
10701;SDS011;5402;50.004;8.246;2023-04-24T14:59:49;3.60;;;2.10;;
10701;SDS011;5402;50.004;8.246;2023-04-24T15:02:16;2.90;;;2.53;;
10701;SDS011;5402;50.004;8.246;2023-04-24T15:04:42;2.40;;;2.20;;
10701;SDS011;5402;50.004;8.246;2023-04-24T15:07:09;4.77;;;2.07;;
10701;SDS011;5402;50.004;8.246;2023-04-24T15:09:36;3.33;;;2.40;;
10701;SDS011;5402;50.004;8.246;2023-04-24T15:12:03;3.00;;;2.30;;